Saturday, September 22, 2018, 9:03 AM EDT
Back to Local

KILG, Wilmington New Castle Co

Location: New Castle, DE, United States Lat: 39.667
Local Time: 9:03 AM EDT (13:03 GMT) Lon: -75.6
Time Zone: US/Eastern Elev: 78 ft

Show me the last for .
Show Coded

Time T Td Feel RH Dir Speed Gust Alt SLP Vis Weather Sky Remarks
2018-09-22 08:51 73 67 77 81 330° 13 - 30.08 30.08 10 SCT070 1-hr Precip Total: Trace
2018-09-22 07:51 73 70 77 90 310° 7 - 30.07 30.07 10 FEW075 6-hr Precip Total (8am): 0.00"
6-hr Min Temp (8am): 71.1°F
6-hr Max Temp (8am): 73.9°F
2018-09-22 06:51 71 70 76 96 290° 6 - 30.05 30.04 8 FEW080 None
2018-09-22 05:51 73 70 77 90 250° 6 - 30.03 30.03 10 FEW050 SCT080 OVC095 1-hr Precip Total: Trace
2018-09-22 04:51 73 70 77 90 270° 8 - 30.01 30.01 10 FEW050 OVC110 None
2018-09-22 04:02 73 69 77 87 220° 7 - 30.00 - 10 SCT016 SCT120 None
2018-09-22 03:51 74 69 78 84 240° 7 - 30.00 29.99 10 BKN016 None
2018-09-22 02:51 74 69 78 84 260° 7 - 30.01 30.01 10 OVC018 None
2018-09-22 02:35 73 69 77 87 260° 3 - 30.01 - 10 BKN018 BKN075 None
2018-09-22 01:51 72 69 76 90 210° 7 - 30.01 30.01 10 CLR 6-hr Min Temp (2am): 72.0°F
6-hr Max Temp (2am): 73.9°F
2018-09-22 01:18 72 69 76 90 200° 9 - 30.01 - 10 SCT025 SCT080 None
2018-09-22 00:51 73 69 77 87 200° 10 - 30.02 30.02 10 BKN026 24-hr Min Temp (1am): 66.9°F
24-hr Max Temp (1am): 75.9°F
2018-09-22 00:48 73 70 77 88 200° 9 - 30.02 - 10 BKN026 BKN031 None
2018-09-21 23:51 73 68 77 84 200° 10 - 30.03 30.03 10 OVC030 None
2018-09-21 22:51 74 67 78 78 220° 6 - 30.05 30.05 10 OVC031 None
2018-09-21 21:51 74 66 77 76 190° 10 - 30.05 30.05 10 OVC031 None
2018-09-21 20:51 74 67 78 78 190° 12 - 30.04 30.04 10 OVC030 None
2018-09-21 19:51 74 67 78 78 180° 9 - 30.03 30.03 10 OVC032 6-hr Min Temp (8pm): 73.9°F
6-hr Max Temp (8pm): 75.9°F
2018-09-21 18:51 74 67 78 78 180° 8 - 30.04 30.04 10 OVC032 None
2018-09-21 17:51 75 66 78 73 170° 13 - 30.06 30.06 10 BKN032 None
2018-09-21 16:51 75 66 78 73 190° 7 - 30.09 30.09 10 OVC032 None
2018-09-21 16:19 75 66 78 73 190° 10 - 30.10 - 10 SCT027 OVC035 None
2018-09-21 15:51 75 65 78 70 200° 10 - 30.11 30.11 10 BKN029 OVC034 None
2018-09-21 15:32 75 65 78 70 210° 10 - 30.12 - 10 OVC028 None
2018-09-21 15:06 76 66 79 71 190° 10 - 30.12 - 10 OVC030 None
2018-09-21 14:51 74 64 77 71 190° 10 - 30.13 30.13 10 OVC029 None
2018-09-21 13:51 75 65 78 70 180° 14 - 30.16 30.15 10 OVC039 6-hr Min Temp (2pm): 68.0°F
6-hr Max Temp (2pm): 75.9°F
2018-09-21 12:51 75 64 78 68 170° 13 - 30.18 30.18 10 FEW034 OVC045 None
2018-09-21 11:51 74 64 77 71 170° 15 - 30.21 30.20 10 OVC043 None
2018-09-21 10:51 73 63 77 70 190° 12 - 30.23 30.22 10 OVC042 None
2018-09-21 09:51 73 65 77 75 190° 12 - 30.23 30.23 10 BKN041 OVC060 None

Support USWX by starting your Amazon purchase here.